Time,TemperatureF,DewpointF,PressureIn,WindDirection,WindDirectionDegrees,WindSpeedMPH,WindSpeedGustMPH,Humidity,HourlyPrecipIn,Conditions,Clouds,dailyrainin,SoftwareType,DateUTC
2013-02-21 00:06:00,44.4,35.2,29.51,West,270,0.0,-999.0,70,-99.99,,,0.00,Acu-Link.com,2013-02-21 06:06:00,
2013-02-21 00:21:00,44.4,35.2,29.51,West,270,0.0,-999.0,70,-99.99,,,0.00,Acu-Link.com,2013-02-21 06:21:00,
2013-02-21 00:36:00,44.4,35.6,29.50,West,270,0.0,-999.0,71,-99.99,,,0.00,Acu-Link.com,2013-02-21 06:36:00,
2013-02-21 00:52:00,44.6,36.1,29.50,West,270,0.0,-999.0,72,-99.99,,,0.00,Acu-Link.com,2013-02-21 06:52:00,
2013-02-21 01:07:00,44.6,36.5,29.50,West,270,0.0,-999.0,73,-99.99,,,0.00,Acu-Link.com,2013-02-21 07:07:00,
2013-02-21 01:22:00,44.8,37.0,29.48,West,270,0.0,-999.0,74,-99.99,,,0.00,Acu-Link.com,2013-02-21 07:22:00,
2013-02-21 01:38:00,44.8,37.4,29.48,West,270,0.0,-999.0,75,-99.99,,,0.00,Acu-Link.com,2013-02-21 07:38:00,
2013-02-21 01:53:00,44.8,37.4,29.51,West,270,0.0,-999.0,75,-99.99,,,0.00,Acu-Link.com,2013-02-21 07:53:00,
2013-02-21 02:08:00,44.8,38.0,29.50,West,270,0.0,-999.0,77,-99.99,,,0.00,Acu-Link.com,2013-02-21 08:08:00,
2013-02-21 02:23:00,44.8,38.4,29.50,West,270,0.0,-999.0,78,-99.99,,,0.00,Acu-Link.com,2013-02-21 08:23:00,
2013-02-21 02:38:00,44.8,38.7,29.49,West,270,0.0,-999.0,79,-99.99,,,0.00,Acu-Link.com,2013-02-21 08:38:00,
2013-02-21 02:54:00,44.8,39.3,29.47,West,270,0.0,-999.0,81,-99.99,,,0.00,Acu-Link.com,2013-02-21 08:54:00,
2013-02-21 03:21:00,44.8,39.6,29.47,West,270,0.0,-999.0,82,-99.99,,,0.00,Acu-Link.com,2013-02-21 09:21:00,
2013-02-21 03:36:00,44.8,40.0,29.42,West,270,0.0,-999.0,83,-99.99,,,0.00,Acu-Link.com,2013-02-21 09:36:00,
2013-02-21 03:52:00,44.8,40.0,29.42,West,270,0.0,-999.0,83,-99.99,,,0.00,Acu-Link.com,2013-02-21 09:52:00,
2013-02-21 04:07:00,45.0,40.2,29.41,West,270,0.0,-999.0,83,-99.99,,,0.00,Acu-Link.com,2013-02-21 10:07:00,
2013-02-21 04:22:00,45.3,40.8,29.41,West,270,0.0,-999.0,84,-99.99,,,0.00,Acu-Link.com,2013-02-21 10:22:00,
2013-02-21 04:37:00,45.3,41.1,29.39,West,270,0.0,-999.0,85,-99.99,,,0.00,Acu-Link.com,2013-02-21 10:37:00,
2013-02-21 04:53:00,45.3,41.4,29.37,West,270,0.0,-999.0,86,-99.99,,,0.00,Acu-Link.com,2013-02-21 10:53:00,
2013-02-21 05:08:00,45.5,41.6,29.36,West,270,0.0,-999.0,86,-99.99,,,0.00,Acu-Link.com,2013-02-21 11:08:00,
2013-02-21 05:23:00,45.7,41.8,29.37,West,270,0.0,-999.0,86,-99.99,,,0.00,Acu-Link.com,2013-02-21 11:23:00,
2013-02-21 05:39:00,45.9,42.3,29.37,West,270,0.0,-999.0,87,-99.99,,,0.00,Acu-Link.com,2013-02-21 11:39:00,
2013-02-21 05:54:00,46.0,42.4,29.37,West,270,0.0,-999.0,87,-99.99,,,0.00,Acu-Link.com,2013-02-21 11:54:00,
2013-02-21 06:09:00,46.2,42.5,29.36,West,270,0.0,-999.0,87,-99.99,,,0.00,Acu-Link.com,2013-02-21 12:09:00,
2013-02-21 06:24:00,46.4,42.7,29.35,West,270,0.0,-999.0,87,-99.99,,,0.00,Acu-Link.com,2013-02-21 12:24:00,
2013-02-21 06:39:00,46.6,42.9,29.35,West,270,0.0,-999.0,87,-99.99,,,0.00,Acu-Link.com,2013-02-21 12:39:00,
2013-02-21 06:55:00,46.8,43.4,29.33,West,270,0.0,-999.0,88,-99.99,,,0.00,Acu-Link.com,2013-02-21 12:55:00,
2013-02-21 07:10:00,46.9,44.1,29.33,West,270,0.0,-999.0,90,-99.99,,,0.00,Acu-Link.com,2013-02-21 13:10:00,
2013-02-21 07:25:00,47.5,45.3,29.33,West,270,0.0,-999.0,92,-99.99,,,0.00,Acu-Link.com,2013-02-21 13:25:00,
2013-02-21 07:41:00,47.7,45.5,29.39,West,270,0.0,-999.0,92,-99.99,,,0.00,Acu-Link.com,2013-02-21 13:41:00,
2013-02-21 07:56:00,47.8,45.9,29.44,West,270,1.7,-999.0,93,-99.99,,,0.00,Acu-Link.com,2013-02-21 13:56:00,
2013-02-21 08:11:00,47.1,45.5,29.45,West,270,0.0,-999.0,94,-99.99,,,0.00,Acu-Link.com,2013-02-21 14:11:00,
2013-02-21 08:26:00,46.9,45.5,29.45,West,270,0.0,-999.0,95,-99.99,,,0.00,Acu-Link.com,2013-02-21 14:26:00,
2013-02-21 08:42:00,46.8,45.4,29.46,West,270,0.0,-999.0,95,-99.99,,,0.00,Acu-Link.com,2013-02-21 14:42:00,
2013-02-21 08:57:00,46.6,45.2,29.45,West,270,0.0,-999.0,95,-99.99,,,0.00,Acu-Link.com,2013-02-21 14:57:00,
2013-02-21 09:12:00,46.8,45.7,29.45,West,270,0.0,-999.0,96,-99.99,,,0.00,Acu-Link.com,2013-02-21 15:12:00,
2013-02-21 09:28:00,47.1,46.3,29.46,West,270,0.0,-999.0,97,-99.99,,,0.00,Acu-Link.com,2013-02-21 15:28:00,
2013-02-21 09:43:00,47.5,46.4,29.45,West,270,0.0,-999.0,96,-99.99,,,0.00,Acu-Link.com,2013-02-21 15:43:00,
2013-02-21 09:58:00,48.2,46.8,29.45,West,270,0.0,-999.0,95,-99.99,,,0.00,Acu-Link.com,2013-02-21 15:58:00,
2013-02-21 10:13:00,49.3,47.4,29.45,West,270,0.0,-999.0,93,-99.99,,,0.00,Acu-Link.com,2013-02-21 16:13:00,
2013-02-21 10:28:00,50.0,47.5,29.46,West,270,0.0,-999.0,91,-99.99,,,0.00,Acu-Link.com,2013-02-21 16:28:00,
2013-02-21 10:44:00,50.7,47.9,29.46,West,270,0.0,-999.0,90,-99.99,,,0.00,Acu-Link.com,2013-02-21 16:44:00,
2013-02-21 10:59:00,51.4,47.7,29.46,West,270,0.0,-999.0,87,-99.99,,,0.00,Acu-Link.com,2013-02-21 16:59:00,
2013-02-21 11:14:00,52.2,48.8,29.47,West,270,0.0,-999.0,88,-99.99,,,0.00,Acu-Link.com,2013-02-21 17:14:00,
2013-02-21 11:30:00,53.1,49.0,29.47,West,270,0.0,-999.0,86,-99.99,,,0.00,Acu-Link.com,2013-02-21 17:30:00,
2013-02-21 11:45:00,54.0,48.6,29.46,West,270,2.7,-999.0,82,-99.99,,,0.00,Acu-Link.com,2013-02-21 17:45:00,
2013-02-21 12:00:00,54.7,48.7,29.46,West,270,2.2,-999.0,80,-99.99,,,0.00,Acu-Link.com,2013-02-21 18:00:00,
2013-02-21 12:16:00,56.1,48.6,29.46,West,270,0.0,-999.0,76,-99.99,,,0.00,Acu-Link.com,2013-02-21 18:16:00,
2013-02-21 12:31:00,56.8,47.5,29.45,West,270,0.0,-999.0,71,-99.99,,,0.00,Acu-Link.com,2013-02-21 18:31:00,
2013-02-21 12:46:00,57.9,47.0,29.44,West,270,0.0,-999.0,67,-99.99,,,0.00,Acu-Link.com,2013-02-21 18:46:00,
2013-02-21 13:02:00,59.0,44.2,29.43,West,270,1.7,-999.0,58,-99.99,,,0.00,Acu-Link.com,2013-02-21 19:02:00,
2013-02-21 13:17:00,59.9,41.7,29.42,West,270,0.0,-999.0,51,-99.99,,,0.00,Acu-Link.com,2013-02-21 19:17:00,
2013-02-21 13:32:00,61.0,40.6,29.42,West,270,0.0,-999.0,47,-99.99,,,0.00,Acu-Link.com,2013-02-21 19:32:00,
2013-02-21 13:48:00,62.1,39.9,29.41,West,270,0.0,-999.0,44,-99.99,,,0.00,Acu-Link.com,2013-02-21 19:48:00,
2013-02-21 14:03:00,63.0,41.3,29.40,West,270,2.2,-999.0,45,-99.99,,,0.00,Acu-Link.com,2013-02-21 20:03:00,
2013-02-21 14:18:00,63.9,41.6,29.40,West,270,2.2,-999.0,44,-99.99,,,0.00,Acu-Link.com,2013-02-21 20:18:00,
2013-02-21 14:34:00,64.6,41.0,29.39,West,270,1.1,-999.0,42,-99.99,,,0.00,Acu-Link.com,2013-02-21 20:34:00,
2013-02-21 14:49:00,67.1,41.3,29.39,West,270,3.7,-999.0,39,-99.99,,,0.00,Acu-Link.com,2013-02-21 20:49:00,
2013-02-21 15:04:00,68.4,35.8,29.39,West,270,1.7,-999.0,30,-99.99,,,0.00,Acu-Link.com,2013-02-21 21:04:00,
2013-02-21 15:19:00,73.8,32.6,29.40,West,270,1.7,-999.0,22,-99.99,,,0.00,Acu-Link.com,2013-02-21 21:19:00,
2013-02-21 15:35:00,76.6,33.7,29.40,West,270,0.0,-999.0,21,-99.99,,,0.00,Acu-Link.com,2013-02-21 21:35:00,
2013-02-21 15:50:00,76.5,32.4,29.40,West,270,0.0,-999.0,20,-99.99,,,0.00,Acu-Link.com,2013-02-21 21:50:00,
2013-02-21 16:05:00,77.4,29.2,29.41,West,270,3.7,-999.0,17,-99.99,,,0.00,Acu-Link.com,2013-02-21 22:05:00,
2013-02-21 16:21:00,74.8,28.5,29.41,West,270,3.2,-999.0,18,-99.99,,,0.00,Acu-Link.com,2013-02-21 22:21:00,
2013-02-21 16:36:00,73.6,30.1,29.41,West,270,0.0,-999.0,20,-99.99,,,0.00,Acu-Link.com,2013-02-21 22:36:00,
2013-02-21 16:51:00,71.4,29.4,29.42,West,270,0.0,-999.0,21,-99.99,,,0.00,Acu-Link.com,2013-02-21 22:51:00,
2013-02-21 17:07:00,69.8,30.3,29.43,West,270,0.0,-999.0,23,-99.99,,,0.00,Acu-Link.com,2013-02-21 23:07:00,
2013-02-21 17:22:00,68.4,30.2,29.43,West,270,2.2,-999.0,24,-99.99,,,0.00,Acu-Link.com,2013-02-21 23:22:00,
2013-02-21 17:37:00,67.5,32.3,29.44,West,270,0.0,-999.0,27,-99.99,,,0.00,Acu-Link.com,2013-02-21 23:37:00,
2013-02-21 17:52:00,66.2,33.0,29.45,West,270,0.0,-999.0,29,-99.99,,,0.00,Acu-Link.com,2013-02-21 23:52:00,
2013-02-21 18:07:00,65.5,34.1,29.47,West,270,0.0,-999.0,31,-99.99,,,0.00,Acu-Link.com,2013-02-22 00:07:00,
2013-02-21 18:23:00,64.4,34.7,29.48,West,270,0.0,-999.0,33,-99.99,,,0.00,Acu-Link.com,2013-02-22 00:23:00,
2013-02-21 18:38:00,63.5,35.4,29.48,West,270,1.1,-999.0,35,-99.99,,,0.00,Acu-Link.com,2013-02-22 00:38:00,
2013-02-21 18:53:00,62.4,35.1,29.50,West,270,1.7,-999.0,36,-99.99,,,0.00,Acu-Link.com,2013-02-22 00:53:00,
2013-02-21 19:09:00,61.7,34.5,29.50,West,270,0.0,-999.0,36,-99.99,,,0.00,Acu-Link.com,2013-02-22 01:09:00,
2013-02-21 19:24:00,61.0,34.5,29.51,West,270,0.0,-999.0,37,-99.99,,,0.00,Acu-Link.com,2013-02-22 01:24:00,
2013-02-21 19:39:00,60.3,34.6,29.51,West,270,0.0,-999.0,38,-99.99,,,0.00,Acu-Link.com,2013-02-22 01:39:00,
2013-02-21 19:54:00,59.7,34.7,29.53,West,270,0.0,-999.0,39,-99.99,,,0.00,Acu-Link.com,2013-02-22 01:54:00,
2013-02-21 20:10:00,59.2,37.9,29.53,West,270,0.0,-999.0,45,-99.99,,,0.00,Acu-Link.com,2013-02-22 02:10:00,
2013-02-21 20:25:00,58.6,35.6,29.54,West,270,0.0,-999.0,42,-99.99,,,0.00,Acu-Link.com,2013-02-22 02:25:00,
2013-02-21 20:40:00,58.3,38.7,29.57,West,270,1.7,-999.0,48,-99.99,,,0.00,Acu-Link.com,2013-02-22 02:40:00,
2013-02-21 20:56:00,57.0,41.0,29.59,West,270,2.7,-999.0,55,-99.99,,,0.00,Acu-Link.com,2013-02-22 02:56:00,
2013-02-21 21:11:00,55.4,40.9,29.61,West,270,0.0,-999.0,58,-99.99,,,0.00,Acu-Link.com,2013-02-22 03:11:00,
2013-02-21 21:26:00,53.8,39.8,29.61,West,270,1.7,-999.0,59,-99.99,,,0.00,Acu-Link.com,2013-02-22 03:26:00,
2013-02-21 21:41:00,52.5,39.0,29.62,West,270,2.7,-999.0,60,-99.99,,,0.00,Acu-Link.com,2013-02-22 03:41:00,
2013-02-21 21:56:00,51.6,39.0,29.62,West,270,1.7,-999.0,62,-99.99,,,0.00,Acu-Link.com,2013-02-22 03:56:00,
2013-02-21 22:11:00,51.1,38.9,29.63,West,270,0.0,-999.0,63,-99.99,,,0.00,Acu-Link.com,2013-02-22 04:11:00,
2013-02-21 22:27:00,50.5,39.2,29.64,West,270,0.0,-999.0,65,-99.99,,,0.00,Acu-Link.com,2013-02-22 04:27:00,
2013-02-21 22:42:00,49.8,38.9,29.65,West,270,0.0,-999.0,66,-99.99,,,0.00,Acu-Link.com,2013-02-22 04:42:00,
2013-02-21 22:57:00,49.6,38.7,29.67,West,270,0.0,-999.0,66,-99.99,,,0.00,Acu-Link.com,2013-02-22 04:57:00,
2013-02-21 23:13:00,48.7,38.2,29.67,West,270,0.0,-999.0,67,-99.99,,,0.00,Acu-Link.com,2013-02-22 05:13:00,
2013-02-21 23:28:00,48.2,37.8,29.67,West,270,0.0,-999.0,67,-99.99,,,0.00,Acu-Link.com,2013-02-22 05:28:00,
2013-02-21 23:43:00,47.5,37.5,29.67,West,270,0.0,-999.0,68,-99.99,,,0.00,Acu-Link.com,2013-02-22 05:43:00,
2013-02-21 23:58:00,46.9,37.3,29.67,West,270,0.0,-999.0,69,-99.99,,,0.00,Acu-Link.com,2013-02-22 05:58:00,